sensor_id;sensor_type;location;lat;lon;timestamp;pressure;altitude;pressure_sealevel;temperature;humidity
69060;BME280;56135;37.534;-122.308;2023-02-12T00:01:15;101190.31;;;10.35;100.00
69060;BME280;56135;37.534;-122.308;2023-02-12T00:03:42;101200.84;;;10.34;100.00
69060;BME280;56135;37.534;-122.308;2023-02-12T00:06:09;101202.63;;;10.33;100.00
69060;BME280;56135;37.534;-122.308;2023-02-12T00:08:36;101200.88;;;10.35;100.00
69060;BME280;56135;37.534;-122.308;2023-02-12T00:11:27;101208.84;;;10.28;100.00
69060;BME280;56135;37.534;-122.308;2023-02-12T00:13:54;101221.16;;;10.26;100.00
69060;BME280;56135;37.534;-122.308;2023-02-12T00:16:24;101207.09;;;10.19;100.00
69060;BME280;56135;37.534;-122.308;2023-02-12T00:18:52;101215.03;;;10.13;100.00
69060;BME280;56135;37.534;-122.308;2023-02-12T00:21:20;101222.97;;;10.07;100.00
69060;BME280;56135;37.534;-122.308;2023-02-12T00:23:46;101234.44;;;9.99;100.00
69060;BME280;56135;37.534;-122.308;2023-02-12T00:26:16;101246.75;;;9.96;100.00
69060;BME280;56135;37.534;-122.308;2023-02-12T00:28:43;101243.25;;;9.89;100.00
69060;BME280;56135;37.534;-122.308;2023-02-12T00:31:10;101256.44;;;9.88;100.00
69060;BME280;56135;37.534;-122.308;2023-02-12T00:33:36;101257.34;;;9.79;100.00
69060;BME280;56135;37.534;-122.308;2023-02-12T00:36:03;101250.31;;;9.78;100.00
69060;BME280;56135;37.534;-122.308;2023-02-12T00:38:30;101245.91;;;9.78;100.00
69060;BME280;56135;37.534;-122.308;2023-02-12T00:40:56;101238.00;;;9.77;100.00
69060;BME280;56135;37.534;-122.308;2023-02-12T00:43:22;101249.44;;;9.70;100.00
69060;BME280;56135;37.534;-122.308;2023-02-12T00:45:49;101247.69;;;9.64;100.00
69060;BME280;56135;37.534;-122.308;2023-02-12T00:48:15;101254.72;;;9.65;100.00
69060;BME280;56135;37.534;-122.308;2023-02-12T00:50:45;101252.97;;;9.68;100.00
69060;BME280;56135;37.534;-122.308;2023-02-12T00:53:12;101258.22;;;9.64;100.00
69060;BME280;56135;37.534;-122.308;2023-02-12T00:55:39;101260.88;;;9.70;100.00
69060;BME280;56135;37.534;-122.308;2023-02-12T00:58:05;101268.78;;;9.73;100.00
69060;BME280;56135;37.534;-122.308;2023-02-12T01:00:31;101275.81;;;9.73;100.00
69060;BME280;56135;37.534;-122.308;2023-02-12T01:02:58;101274.94;;;9.77;100.00
69060;BME280;56135;37.534;-122.308;2023-02-12T01:05:24;101265.22;;;9.99;100.00
69060;BME280;56135;37.534;-122.308;2023-02-12T01:07:51;101267.84;;;9.96;100.00
69060;BME280;56135;37.534;-122.308;2023-02-12T01:10:19;101273.16;;;9.97;100.00
69060;BME280;56135;37.534;-122.308;2023-02-12T01:12:46;101267.00;;;9.86;100.00
69060;BME280;56135;37.534;-122.308;2023-02-12T01:15:14;101259.09;;;9.77;100.00
69060;BME280;56135;37.534;-122.308;2023-02-12T01:17:40;101259.13;;;9.67;100.00
69060;BME280;56135;37.534;-122.308;2023-02-12T01:20:08;101263.50;;;9.56;100.00
69060;BME280;56135;37.534;-122.308;2023-02-12T01:22:35;101260.00;;;9.49;100.00
69060;BME280;56135;37.534;-122.308;2023-02-12T01:25:05;101255.59;;;9.41;100.00
69060;BME280;56135;37.534;-122.308;2023-02-12T01:27:32;101274.94;;;9.30;100.00
69060;BME280;56135;37.534;-122.308;2023-02-12T01:29:58;101281.97;;;9.22;100.00
69060;BME280;56135;37.534;-122.308;2023-02-12T01:32:24;101290.72;;;9.07;100.00
69060;BME280;56135;37.534;-122.308;2023-02-12T01:34:50;101288.94;;;8.95;100.00
69060;BME280;56135;37.534;-122.308;2023-02-12T01:37:16;101286.25;;;8.84;100.00
69060;BME280;56135;37.534;-122.308;2023-02-12T01:39:43;101278.31;;;8.74;100.00
69060;BME280;56135;37.534;-122.308;2023-02-12T01:42:15;101279.19;;;8.65;100.00
69060;BME280;56135;37.534;-122.308;2023-02-12T01:47:42;101260.66;;;8.45;100.00
69060;BME280;56135;37.534;-122.308;2023-02-12T01:50:13;101261.47;;;8.41;100.00
69060;BME280;56135;37.534;-122.308;2023-02-12T01:52:47;101266.69;;;8.28;100.00
69060;BME280;56135;37.534;-122.308;2023-02-12T01:55:15;101266.66;;;8.21;100.00
69060;BME280;56135;37.534;-122.308;2023-02-12T01:57:44;101262.25;;;8.15;100.00
69060;BME280;56135;37.534;-122.308;2023-02-12T02:00:23;101281.47;;;8.03;100.00
69060;BME280;56135;37.534;-122.308;2023-02-12T02:02:55;101286.69;;;7.95;100.00
69060;BME280;56135;37.534;-122.308;2023-02-12T02:05:48;101288.38;;;7.87;100.00
69060;BME280;56135;37.534;-122.308;2023-02-12T02:08:17;101298.84;;;7.78;100.00
69060;BME280;56135;37.534;-122.308;2023-02-12T02:10:43;101303.16;;;7.73;100.00
69060;BME280;56135;37.534;-122.308;2023-02-12T02:13:09;101301.38;;;7.65;100.00
69060;BME280;56135;37.534;-122.308;2023-02-12T02:15:59;101296.91;;;7.55;100.00
69060;BME280;56135;37.534;-122.308;2023-02-12T02:19:29;101295.09;;;7.49;100.00
69060;BME280;56135;37.534;-122.308;2023-02-12T02:27:19;101290.44;;;7.17;100.00
69060;BME280;56135;37.534;-122.308;2023-02-12T02:30:13;101289.50;;;7.12;100.00
69060;BME280;56135;37.534;-122.308;2023-02-12T02:35:46;101286.72;;;6.98;100.00
69060;BME280;56135;37.534;-122.308;2023-02-12T02:38:40;101291.84;;;6.88;100.00
69060;BME280;56135;37.534;-122.308;2023-02-12T02:43:54;101310.03;;;6.69;100.00
69060;BME280;56135;37.534;-122.308;2023-02-12T02:48:53;101320.38;;;6.55;100.00
69060;BME280;56135;37.534;-122.308;2023-02-12T02:51:26;101324.69;;;6.51;100.00
69060;BME280;56135;37.534;-122.308;2023-02-12T02:54:00;101329.88;;;6.48;100.00
69060;BME280;56135;37.534;-122.308;2023-02-12T02:56:29;101330.75;;;6.46;100.00
69060;BME280;56135;37.534;-122.308;2023-02-12T02:59:05;101342.03;;;6.42;100.00
69060;BME280;56135;37.534;-122.308;2023-02-12T03:01:42;101349.88;;;6.39;100.00
69060;BME280;56135;37.534;-122.308;2023-02-12T03:04:40;101364.69;;;6.35;100.00
69060;BME280;56135;37.534;-122.308;2023-02-12T03:07:12;101363.72;;;6.28;100.00
69060;BME280;56135;37.534;-122.308;2023-02-12T03:10:10;101367.19;;;6.26;100.00
69060;BME280;56135;37.534;-122.308;2023-02-12T03:15:23;101372.38;;;6.21;100.00
69060;BME280;56135;37.534;-122.308;2023-02-12T03:17:51;101383.75;;;6.23;100.00
69060;BME280;56135;37.534;-122.308;2023-02-12T03:23:03;101376.81;;;6.25;100.00
69060;BME280;56135;37.534;-122.308;2023-02-12T03:26:02;101381.19;;;6.26;100.00
69060;BME280;56135;37.534;-122.308;2023-02-12T03:28:35;101382.91;;;6.24;100.00
69060;BME280;56135;37.534;-122.308;2023-02-12T03:33:59;101379.31;;;6.19;100.00
69060;BME280;56135;37.534;-122.308;2023-02-12T03:39:16;101378.50;;;6.22;100.00
69060;BME280;56135;37.534;-122.308;2023-02-12T03:41:56;101382.91;;;6.24;100.00
69060;BME280;56135;37.534;-122.308;2023-02-12T03:44:49;101390.88;;;6.29;100.00
69060;BME280;56135;37.534;-122.308;2023-02-12T03:47:40;101388.28;;;6.33;100.00
69060;BME280;56135;37.534;-122.308;2023-02-12T03:50:23;101395.34;;;6.38;100.00
69060;BME280;56135;37.534;-122.308;2023-02-12T03:52:51;101405.03;;;6.42;100.00
69060;BME280;56135;37.534;-122.308;2023-02-12T03:55:18;101407.72;;;6.45;100.00
69060;BME280;56135;37.534;-122.308;2023-02-12T03:57:49;101406.91;;;6.49;100.00
69060;BME280;56135;37.534;-122.308;2023-02-12T04:00:20;101413.94;;;6.51;100.00
69060;BME280;56135;37.534;-122.308;2023-02-12T04:02:47;101400.84;;;6.53;100.00
69060;BME280;56135;37.534;-122.308;2023-02-12T04:05:23;101404.28;;;6.50;100.00
69060;BME280;56135;37.534;-122.308;2023-02-12T04:07:51;101403.34;;;6.47;100.00
69060;BME280;56135;37.534;-122.308;2023-02-12T04:10:26;101402.41;;;6.42;100.00
69060;BME280;56135;37.534;-122.308;2023-02-12T04:13:18;101406.75;;;6.38;100.00
69060;BME280;56135;37.534;-122.308;2023-02-12T04:15:56;101413.72;;;6.38;100.00
69060;BME280;56135;37.534;-122.308;2023-02-12T04:18:37;101403.19;;;6.36;100.00
69060;BME280;56135;37.534;-122.308;2023-02-12T04:24:06;101397.09;;;6.36;100.00
69060;BME280;56135;37.534;-122.308;2023-02-12T04:31:49;101394.47;;;6.37;100.00
69060;BME280;56135;37.534;-122.308;2023-02-12T04:37:06;101386.66;;;6.42;100.00
69060;BME280;56135;37.534;-122.308;2023-02-12T04:39:37;101384.09;;;6.43;100.00
69060;BME280;56135;37.534;-122.308;2023-02-12T04:42:05;101376.22;;;6.45;100.00
69060;BME280;56135;37.534;-122.308;2023-02-12T04:44:33;101380.63;;;6.47;100.00
69060;BME280;56135;37.534;-122.308;2023-02-12T04:47:00;101378.03;;;6.49;100.00
69060;BME280;56135;37.534;-122.308;2023-02-12T04:49:26;101370.16;;;6.49;100.00
69060;BME280;56135;37.534;-122.308;2023-02-12T04:51:52;101365.75;;;6.48;100.00
69060;BME280;56135;37.534;-122.308;2023-02-12T04:54:20;101367.44;;;6.43;100.00
69060;BME280;56135;37.534;-122.308;2023-02-12T04:56:47;101377.84;;;6.37;100.00
69060;BME280;56135;37.534;-122.308;2023-02-12T04:59:13;101379.56;;;6.33;100.00
69060;BME280;56135;37.534;-122.308;2023-02-12T05:01:50;101383.81;;;6.26;100.00
69060;BME280;56135;37.534;-122.308;2023-02-12T05:59:51;101359.47;;;5.31;100.00
69060;BME280;56135;37.534;-122.308;2023-02-12T06:02:29;101353.28;;;5.27;100.00
69060;BME280;56135;37.534;-122.308;2023-02-12T06:08:48;101363.72;;;5.24;100.00
69060;BME280;56135;37.534;-122.308;2023-02-12T06:11:15;101356.66;;;5.22;100.00
69060;BME280;56135;37.534;-122.308;2023-02-12T06:13:43;101354.00;;;5.18;100.00
69060;BME280;56135;37.534;-122.308;2023-02-12T06:16:20;101358.34;;;5.18;100.00
69060;BME280;56135;37.534;-122.308;2023-02-12T06:18:47;101361.81;;;5.17;100.00
69060;BME280;56135;37.534;-122.308;2023-02-12T06:21:14;101367.03;;;5.15;100.00
69060;BME280;56135;37.534;-122.308;2023-02-12T06:23:40;101353.06;;;5.15;100.00
69060;BME280;56135;37.534;-122.308;2023-02-12T06:26:07;101358.28;;;5.15;100.00
69060;BME280;56135;37.534;-122.308;2023-02-12T06:28:33;101356.47;;;5.11;100.00
69060;BME280;56135;37.534;-122.308;2023-02-12T06:30:59;101352.06;;;5.08;100.00
69060;BME280;56135;37.534;-122.308;2023-02-12T06:33:26;101349.31;;;5.04;100.00
69060;BME280;56135;37.534;-122.308;2023-02-12T06:35:52;101353.72;;;5.05;100.00
69060;BME280;56135;37.534;-122.308;2023-02-12T06:38:18;101351.09;;;5.05;100.00
69060;BME280;56135;37.534;-122.308;2023-02-12T06:40:44;101352.75;;;4.99;100.00
69060;BME280;56135;37.534;-122.308;2023-02-12T06:43:11;101351.22;;;5.09;100.00
69060;BME280;56135;37.534;-122.308;2023-02-12T06:45:37;101362.72;;;5.17;100.00
69060;BME280;56135;37.534;-122.308;2023-02-12T06:48:03;101364.34;;;5.12;100.00
69060;BME280;56135;37.534;-122.308;2023-02-12T06:50:31;101358.09;;;5.06;100.00
69060;BME280;56135;37.534;-122.308;2023-02-12T06:52:58;101367.59;;;4.99;100.00
69060;BME280;56135;37.534;-122.308;2023-02-12T06:55:24;101372.72;;;4.94;100.00
69060;BME280;56135;37.534;-122.308;2023-02-12T06:57:50;101370.84;;;4.87;100.00
69060;BME280;56135;37.534;-122.308;2023-02-12T07:00:17;101377.66;;;4.79;100.00
69060;BME280;56135;37.534;-122.308;2023-02-12T07:02:43;101371.44;;;4.74;100.00
69060;BME280;56135;37.534;-122.308;2023-02-12T07:05:10;101373.91;;;4.67;100.00
69060;BME280;56135;37.534;-122.308;2023-02-12T07:07:36;101370.28;;;4.61;100.00
69060;BME280;56135;37.534;-122.308;2023-02-12T07:10:02;101374.47;;;4.53;100.00
69060;BME280;56135;37.534;-122.308;2023-02-12T07:12:28;101383.00;;;4.45;100.00
69060;BME280;56135;37.534;-122.308;2023-02-12T07:14:54;101396.00;;;4.41;100.00
69060;BME280;56135;37.534;-122.308;2023-02-12T07:17:21;101393.22;;;4.34;100.00
69060;BME280;56135;37.534;-122.308;2023-02-12T07:19:47;101400.09;;;4.29;100.00
69060;BME280;56135;37.534;-122.308;2023-02-12T07:22:13;101397.44;;;4.28;100.00
69060;BME280;56135;37.534;-122.308;2023-02-12T07:24:48;101402.59;;;4.25;100.00
69060;BME280;56135;37.534;-122.308;2023-02-12T07:49:06;101417.03;;;3.74;100.00
69060;BME280;56135;37.534;-122.308;2023-02-12T08:34:06;101444.25;;;3.50;100.00
69060;BME280;56135;37.534;-122.308;2023-02-12T08:40:11;101450.16;;;3.43;100.00
69060;BME280;56135;37.534;-122.308;2023-02-12T08:46:39;101435.19;;;3.36;100.00
69060;BME280;56135;37.534;-122.308;2023-02-12T08:49:35;101431.59;;;3.32;100.00
69060;BME280;56135;37.534;-122.308;2023-02-12T08:56:25;101434.06;;;3.27;100.00
69060;BME280;56135;37.534;-122.308;2023-02-12T09:10:21;101456.53;;;3.22;100.00
69060;BME280;56135;37.534;-122.308;2023-02-12T09:14:12;101460.84;;;3.20;100.00
69060;BME280;56135;37.534;-122.308;2023-02-12T09:20:08;101468.66;;;3.19;100.00
69060;BME280;56135;37.534;-122.308;2023-02-12T09:22:34;101473.91;;;3.20;100.00
69060;BME280;56135;37.534;-122.308;2023-02-12T09:25:04;101465.94;;;3.15;100.00
69060;BME280;56135;37.534;-122.308;2023-02-12T09:27:31;101457.22;;;3.15;100.00
69060;BME280;56135;37.534;-122.308;2023-02-12T09:29:57;101455.47;;;3.15;100.00
69060;BME280;56135;37.534;-122.308;2023-02-12T09:32:23;101450.38;;;3.19;100.00
69060;BME280;56135;37.534;-122.308;2023-02-12T09:34:49;101466.06;;;3.20;100.00
69060;BME280;56135;37.534;-122.308;2023-02-12T09:37:15;101465.09;;;3.16;100.00
69060;BME280;56135;37.534;-122.308;2023-02-12T09:39:42;101456.38;;;3.16;100.00
69060;BME280;56135;37.534;-122.308;2023-02-12T09:42:28;101464.25;;;3.17;100.00
69060;BME280;56135;37.534;-122.308;2023-02-12T09:52:59;101466.72;;;3.13;100.00
69060;BME280;56135;37.534;-122.308;2023-02-12T09:55:31;101460.63;;;3.12;100.00
69060;BME280;56135;37.534;-122.308;2023-02-12T09:58:10;101461.47;;;3.11;100.00
69060;BME280;56135;37.534;-122.308;2023-02-12T10:00:38;101464.06;;;3.11;100.00
69060;BME280;56135;37.534;-122.308;2023-02-12T10:03:11;101460.53;;;3.09;100.00
69060;BME280;56135;37.534;-122.308;2023-02-12T10:10:51;101450.91;;;3.07;100.00
69060;BME280;56135;37.534;-122.308;2023-02-12T10:21:22;101448.19;;;3.04;100.00
69060;BME280;56135;37.534;-122.308;2023-02-12T10:26:57;101452.41;;;2.98;100.00
69060;BME280;56135;37.534;-122.308;2023-02-12T10:29:25;101446.44;;;3.03;100.00
69060;BME280;56135;37.534;-122.308;2023-02-12T10:31:59;101452.47;;;3.02;100.00
69060;BME280;56135;37.534;-122.308;2023-02-12T10:34:33;101456.91;;;3.04;100.00
69060;BME280;56135;37.534;-122.308;2023-02-12T10:37:12;101466.44;;;3.04;100.00
69060;BME280;56135;37.534;-122.308;2023-02-12T10:39:47;101472.63;;;3.06;100.00
69060;BME280;56135;37.534;-122.308;2023-02-12T10:42:20;101470.03;;;3.07;100.00
69060;BME280;56135;37.534;-122.308;2023-02-12T10:44:48;101475.34;;;3.10;100.00
69060;BME280;56135;37.534;-122.308;2023-02-12T10:47:19;101471.00;;;3.09;100.00
69060;BME280;56135;37.534;-122.308;2023-02-12T10:50:00;101482.31;;;3.10;100.00
69060;BME280;56135;37.534;-122.308;2023-02-12T10:52:40;101472.69;;;3.09;100.00
69060;BME280;56135;37.534;-122.308;2023-02-12T10:55:33;101476.09;;;3.06;100.00
69060;BME280;56135;37.534;-122.308;2023-02-12T10:58:01;101486.47;;;3.03;100.00
69060;BME280;56135;37.534;-122.308;2023-02-12T11:00:31;101485.59;;;3.03;100.00
69060;BME280;56135;37.534;-122.308;2023-02-12T11:03:19;101483.72;;;2.98;100.00
69060;BME280;56135;37.534;-122.308;2023-02-12T11:05:46;101477.53;;;2.95;100.00
69060;BME280;56135;37.534;-122.308;2023-02-12T11:11:14;101476.41;;;2.87;100.00
69060;BME280;56135;37.534;-122.308;2023-02-12T11:13:45;101479.72;;;2.82;100.00
69060;BME280;56135;37.534;-122.308;2023-02-12T11:16:14;101489.25;;;2.80;100.00
69060;BME280;56135;37.534;-122.308;2023-02-12T11:19:00;101483.97;;;2.77;100.00
69060;BME280;56135;37.534;-122.308;2023-02-12T11:21:27;101485.63;;;2.75;100.00
69060;BME280;56135;37.534;-122.308;2023-02-12T11:23:53;101477.09;;;2.81;100.00
69060;BME280;56135;37.534;-122.308;2023-02-12T11:29:16;101477.03;;;2.79;100.00
69060;BME280;56135;37.534;-122.308;2023-02-12T11:31:40;101470.84;;;2.76;100.00
69060;BME280;56135;37.534;-122.308;2023-02-12T11:34:15;101468.09;;;2.71;100.00
69060;BME280;56135;37.534;-122.308;2023-02-12T11:36:47;101465.44;;;2.70;100.00
69060;BME280;56135;37.534;-122.308;2023-02-12T11:44:58;101480.19;;;2.69;100.00
69060;BME280;56135;37.534;-122.308;2023-02-12T11:47:31;101483.72;;;2.70;100.00
69060;BME280;56135;37.534;-122.308;2023-02-12T11:52:41;101481.88;;;2.67;100.00
69060;BME280;56135;37.534;-122.308;2023-02-12T11:57:50;101469.53;;;2.61;100.00
69060;BME280;56135;37.534;-122.308;2023-02-12T12:00:34;101471.22;;;2.59;100.00
69060;BME280;56135;37.534;-122.308;2023-02-12T12:03:15;101467.59;;;2.56;100.00
69060;BME280;56135;37.534;-122.308;2023-02-12T12:05:56;101474.50;;;2.54;100.00
69060;BME280;56135;37.534;-122.308;2023-02-12T12:08:38;101476.19;;;2.52;100.00
69060;BME280;56135;37.534;-122.308;2023-02-12T12:13:55;101465.69;;;2.50;100.00
69060;BME280;56135;37.534;-122.308;2023-02-12T12:17:03;101469.97;;;2.48;100.00
69060;BME280;56135;37.534;-122.308;2023-02-12T12:20:04;101480.31;;;2.45;100.00
69060;BME280;56135;37.534;-122.308;2023-02-12T12:22:41;101475.00;;;2.42;100.00
69060;BME280;56135;37.534;-122.308;2023-02-12T12:25:22;101479.28;;;2.40;100.00
69060;BME280;56135;37.534;-122.308;2023-02-12T12:33:47;101461.66;;;2.32;100.00
69060;BME280;56135;37.534;-122.308;2023-02-12T12:41:55;101459.59;;;2.22;100.00
69060;BME280;56135;37.534;-122.308;2023-02-12T12:44:51;101468.19;;;2.20;100.00
69060;BME280;56135;37.534;-122.308;2023-02-12T12:50:31;101475.75;;;2.12;100.00
69060;BME280;56135;37.534;-122.308;2023-02-12T12:53:25;101474.94;;;2.13;100.00
69060;BME280;56135;37.534;-122.308;2023-02-12T12:56:18;101478.41;;;2.13;100.00
69060;BME280;56135;37.534;-122.308;2023-02-12T12:59:11;101483.22;;;2.27;100.00
69060;BME280;56135;37.534;-122.308;2023-02-12T13:01:53;101474.50;;;2.26;100.00
69060;BME280;56135;37.534;-122.308;2023-02-12T13:18:43;101466.41;;;2.19;100.00
69060;BME280;56135;37.534;-122.308;2023-02-12T13:24:15;101462.88;;;2.16;100.00
69060;BME280;56135;37.534;-122.308;2023-02-12T13:26:52;101444.53;;;2.13;100.00
69060;BME280;56135;37.534;-122.308;2023-02-12T13:29:42;101439.38;;;2.15;100.00
69060;BME280;56135;37.534;-122.308;2023-02-12T13:32:14;101436.59;;;2.10;100.00
69060;BME280;56135;37.534;-122.308;2023-02-12T13:34:42;101439.22;;;2.10;100.00
69060;BME280;56135;37.534;-122.308;2023-02-12T13:37:16;101448.72;;;2.08;100.00
69060;BME280;56135;37.534;-122.308;2023-02-12T13:39:47;101459.94;;;2.06;100.00
69060;BME280;56135;37.534;-122.308;2023-02-12T13:42:39;101463.31;;;2.03;100.00
69060;BME280;56135;37.534;-122.308;2023-02-12T13:51:26;101475.25;;;1.96;100.00
69060;BME280;56135;37.534;-122.308;2023-02-12T13:53:57;101487.34;;;1.94;100.00
69060;BME280;56135;37.534;-122.308;2023-02-12T13:59:03;101502.88;;;1.91;100.00
69060;BME280;56135;37.534;-122.308;2023-02-12T14:01:46;101503.75;;;1.92;100.00
69060;BME280;56135;37.534;-122.308;2023-02-12T14:09:29;101505.44;;;1.90;100.00
69060;BME280;56135;37.534;-122.308;2023-02-12T14:11:58;101503.69;;;1.90;100.00
69060;BME280;56135;37.534;-122.308;2023-02-12T14:14:35;101508.91;;;1.90;100.00
69060;BME280;56135;37.534;-122.308;2023-02-12T14:25:01;101507.19;;;1.91;100.00
69060;BME280;56135;37.534;-122.308;2023-02-12T14:35:30;101523.88;;;1.96;100.00
69060;BME280;56135;37.534;-122.308;2023-02-12T14:37:59;101518.69;;;1.97;100.00
69060;BME280;56135;37.534;-122.308;2023-02-12T14:43:02;101509.13;;;1.96;100.00
69060;BME280;56135;37.534;-122.308;2023-02-12T14:45:32;101512.66;;;1.98;100.00
69060;BME280;56135;37.534;-122.308;2023-02-12T14:47:58;101524.03;;;2.00;100.00
69060;BME280;56135;37.534;-122.308;2023-02-12T14:50:29;101530.09;;;1.99;100.00
69060;BME280;56135;37.534;-122.308;2023-02-12T14:55:46;101538.78;;;2.00;100.00
69060;BME280;56135;37.534;-122.308;2023-02-12T14:58:17;101537.94;;;2.01;100.00
69060;BME280;56135;37.534;-122.308;2023-02-12T15:00:46;101536.34;;;2.05;100.00
69060;BME280;56135;37.534;-122.308;2023-02-12T15:06:09;101550.31;;;2.07;100.00
69060;BME280;56135;37.534;-122.308;2023-02-12T15:08:48;101553.84;;;2.09;100.00
69060;BME280;56135;37.534;-122.308;2023-02-12T15:14:19;101558.44;;;2.16;100.00
69060;BME280;56135;37.534;-122.308;2023-02-12T15:22:26;101551.78;;;2.24;100.00
69060;BME280;56135;37.534;-122.308;2023-02-12T15:27:43;101551.97;;;2.30;100.00
69060;BME280;56135;37.534;-122.308;2023-02-12T15:30:34;101547.81;;;2.36;100.00
69060;BME280;56135;37.534;-122.308;2023-02-12T15:33:05;101549.81;;;2.43;100.00
69060;BME280;56135;37.534;-122.308;2023-02-12T15:35:37;101556.16;;;2.51;100.00
69060;BME280;56135;37.534;-122.308;2023-02-12T15:38:05;101557.16;;;2.55;100.00
69060;BME280;56135;37.534;-122.308;2023-02-12T15:40:33;101561.81;;;2.65;100.00
69060;BME280;56135;37.534;-122.308;2023-02-12T15:43:01;101562.06;;;2.73;100.00
69060;BME280;56135;37.534;-122.308;2023-02-12T15:45:30;101569.31;;;2.81;100.00
69060;BME280;56135;37.534;-122.308;2023-02-12T15:50:44;101577.78;;;3.02;100.00
69060;BME280;56135;37.534;-122.308;2023-02-12T15:53:12;101587.59;;;3.10;100.00
69060;BME280;56135;37.534;-122.308;2023-02-12T15:55:43;101589.63;;;3.19;100.00
69060;BME280;56135;37.534;-122.308;2023-02-12T15:58:26;101598.75;;;3.32;100.00
69060;BME280;56135;37.534;-122.308;2023-02-12T16:00:59;101587.78;;;3.44;100.00
69060;BME280;56135;37.534;-122.308;2023-02-12T16:06:07;101590.38;;;3.73;100.00
69060;BME280;56135;37.534;-122.308;2023-02-12T16:08:44;101595.13;;;3.88;100.00
69060;BME280;56135;37.534;-122.308;2023-02-12T16:11:12;101589.47;;;4.04;100.00
69060;BME280;56135;37.534;-122.308;2023-02-12T16:13:51;101598.78;;;4.25;100.00
69060;BME280;56135;37.534;-122.308;2023-02-12T16:16:21;101582.66;;;4.43;100.00
69060;BME280;56135;37.534;-122.308;2023-02-12T16:21:43;101595.75;;;4.78;100.00
69060;BME280;56135;37.534;-122.308;2023-02-12T16:24:30;101589.16;;;4.94;100.00
69060;BME280;56135;37.534;-122.308;2023-02-12T16:27:03;101586.84;;;5.08;100.00
69060;BME280;56135;37.534;-122.308;2023-02-12T16:29:35;101585.47;;;5.24;100.00
69060;BME280;56135;37.534;-122.308;2023-02-12T16:32:02;101578.84;;;5.40;100.00
69060;BME280;56135;37.534;-122.308;2023-02-12T16:34:32;101578.16;;;5.48;100.00
69060;BME280;56135;37.534;-122.308;2023-02-12T16:36:59;101582.66;;;5.56;100.00
69060;BME280;56135;37.534;-122.308;2023-02-12T16:40:02;101573.38;;;5.70;100.00
69060;BME280;56135;37.534;-122.308;2023-02-12T16:42:14;101574.56;;;5.86;100.00
69060;BME280;56135;37.534;-122.308;2023-02-12T16:44:43;101568.75;;;5.99;100.00
69060;BME280;56135;37.534;-122.308;2023-02-12T16:47:19;101570.88;;;6.21;100.00
69060;BME280;56135;37.534;-122.308;2023-02-12T16:49:57;101559.94;;;6.45;100.00
69060;BME280;56135;37.534;-122.308;2023-02-12T16:52:33;101566.22;;;6.53;100.00
69060;BME280;56135;37.534;-122.308;2023-02-12T16:55:02;101563.06;;;6.74;100.00
69060;BME280;56135;37.534;-122.308;2023-02-12T16:57:29;101557.88;;;6.79;100.00
69060;BME280;56135;37.534;-122.308;2023-02-12T16:59:55;101562.44;;;6.92;100.00
69060;BME280;56135;37.534;-122.308;2023-02-12T17:02:21;101556.69;;;7.15;100.00
69060;BME280;56135;37.534;-122.308;2023-02-12T17:04:47;101562.91;;;7.23;100.00
69060;BME280;56135;37.534;-122.308;2023-02-12T17:07:23;101563.09;;;7.37;100.00
69060;BME280;56135;37.534;-122.308;2023-02-12T17:09:52;101563.47;;;7.66;100.00
69060;BME280;56135;37.534;-122.308;2023-02-12T17:12:18;101564.41;;;7.72;100.00
69060;BME280;56135;37.534;-122.308;2023-02-12T17:14:45;101565.50;;;7.89;100.00
69060;BME280;56135;37.534;-122.308;2023-02-12T17:17:12;101562.47;;;8.35;100.00
69060;BME280;56135;37.534;-122.308;2023-02-12T17:19:38;101564.66;;;8.79;100.00
69060;BME280;56135;37.534;-122.308;2023-02-12T17:22:06;101555.38;;;9.42;100.00
69060;BME280;56135;37.534;-122.308;2023-02-12T17:24:33;101561.75;;;10.10;100.00
69060;BME280;56135;37.534;-122.308;2023-02-12T17:27:00;101554.78;;;10.63;100.00
69060;BME280;56135;37.534;-122.308;2023-02-12T17:29:27;101549.44;;;11.19;100.00
69060;BME280;56135;37.534;-122.308;2023-02-12T17:31:55;101544.88;;;11.67;100.00
69060;BME280;56135;37.534;-122.308;2023-02-12T17:34:22;101550.81;;;12.14;100.00
69060;BME280;56135;37.534;-122.308;2023-02-12T17:36:49;101550.53;;;12.53;100.00
69060;BME280;56135;37.534;-122.308;2023-02-12T17:39:16;101554.69;;;12.85;100.00
69060;BME280;56135;37.534;-122.308;2023-02-12T17:41:43;101558.00;;;13.09;100.00
69060;BME280;56135;37.534;-122.308;2023-02-12T17:44:10;101553.13;;;13.51;100.00
69060;BME280;56135;37.534;-122.308;2023-02-12T17:46:38;101552.84;;;13.74;100.00
69060;BME280;56135;37.534;-122.308;2023-02-12T17:49:04;101552.38;;;14.10;100.00
69060;BME280;56135;37.534;-122.308;2023-02-12T17:51:30;101556.50;;;14.29;100.00
69060;BME280;56135;37.534;-122.308;2023-02-12T17:53:56;101546.78;;;14.28;100.00
69060;BME280;56135;37.534;-122.308;2023-02-12T17:56:23;101546.22;;;14.62;100.00
69060;BME280;56135;37.534;-122.308;2023-02-12T17:58:52;101544.94;;;14.32;100.00
69060;BME280;56135;37.534;-122.308;2023-02-12T18:01:19;101543.56;;;14.62;100.00
69060;BME280;56135;37.534;-122.308;2023-02-12T18:03:45;101534.31;;;14.87;100.00
69060;BME280;56135;37.534;-122.308;2023-02-12T18:06:12;101541.78;;;15.16;100.00
69060;BME280;56135;37.534;-122.308;2023-02-12T18:08:41;101538.38;;;15.53;100.00